sensor_id;sensor_type;location;lat;lon;timestamp;temperature;humidity
21481;DHT22;10902;48.158;8.634;2023-03-01T00:01:07;-2.60;99.90
21481;DHT22;10902;48.158;8.634;2023-03-01T00:03:33;-2.60;99.90
21481;DHT22;10902;48.158;8.634;2023-03-01T00:06:00;-2.60;99.90
21481;DHT22;10902;48.158;8.634;2023-03-01T00:08:26;-2.60;99.90
21481;DHT22;10902;48.158;8.634;2023-03-01T00:11:07;-2.60;99.90
21481;DHT22;10902;48.158;8.634;2023-03-01T00:13:34;-2.70;99.90
21481;DHT22;10902;48.158;8.634;2023-03-01T00:16:06;-2.70;99.90
21481;DHT22;10902;48.158;8.634;2023-03-01T00:18:32;-2.70;99.90
21481;DHT22;10902;48.158;8.634;2023-03-01T00:20:58;-2.80;99.90
21481;DHT22;10902;48.158;8.634;2023-03-01T00:23:24;-2.80;99.90
21481;DHT22;10902;48.158;8.634;2023-03-01T00:25:50;-2.80;99.90
21481;DHT22;10902;48.158;8.634;2023-03-01T00:28:16;-2.80;99.90
21481;DHT22;10902;48.158;8.634;2023-03-01T00:30:42;-2.80;99.90
21481;DHT22;10902;48.158;8.634;2023-03-01T00:33:08;-2.80;99.90
21481;DHT22;10902;48.158;8.634;2023-03-01T00:35:34;-2.80;99.90
21481;DHT22;10902;48.158;8.634;2023-03-01T00:38:00;-2.90;99.90
21481;DHT22;10902;48.158;8.634;2023-03-01T00:40:31;-2.90;99.90
21481;DHT22;10902;48.158;8.634;2023-03-01T00:42:57;-2.90;99.90
21481;DHT22;10902;48.158;8.634;2023-03-01T00:45:23;-2.90;99.90
21481;DHT22;10902;48.158;8.634;2023-03-01T00:47:50;-2.80;99.90
21481;DHT22;10902;48.158;8.634;2023-03-01T00:50:16;-2.90;99.90
21481;DHT22;10902;48.158;8.634;2023-03-01T00:52:41;-2.90;99.90
21481;DHT22;10902;48.158;8.634;2023-03-01T00:55:07;-2.80;99.90
21481;DHT22;10902;48.158;8.634;2023-03-01T00:57:33;-2.90;99.90
21481;DHT22;10902;48.158;8.634;2023-03-01T00:59:59;-2.80;99.90
21481;DHT22;10902;48.158;8.634;2023-03-01T01:02:25;-2.90;99.90
21481;DHT22;10902;48.158;8.634;2023-03-01T01:04:50;-3.00;99.90
21481;DHT22;10902;48.158;8.634;2023-03-01T01:07:16;-2.90;99.90
21481;DHT22;10902;48.158;8.634;2023-03-01T01:09:42;-2.90;99.90
21481;DHT22;10902;48.158;8.634;2023-03-01T01:12:07;-2.90;99.90
21481;DHT22;10902;48.158;8.634;2023-03-01T01:14:33;-2.90;99.90
21481;DHT22;10902;48.158;8.634;2023-03-01T01:16:59;-3.00;99.90
21481;DHT22;10902;48.158;8.634;2023-03-01T01:19:25;-3.00;99.90
21481;DHT22;10902;48.158;8.634;2023-03-01T01:21:51;-3.10;99.90
21481;DHT22;10902;48.158;8.634;2023-03-01T01:24:17;-3.00;99.90
21481;DHT22;10902;48.158;8.634;2023-03-01T01:26:43;-3.10;99.90
21481;DHT22;10902;48.158;8.634;2023-03-01T01:29:09;-3.00;99.90
21481;DHT22;10902;48.158;8.634;2023-03-01T01:31:37;-3.00;99.90
21481;DHT22;10902;48.158;8.634;2023-03-01T01:34:05;-3.10;99.90
21481;DHT22;10902;48.158;8.634;2023-03-01T01:36:31;-3.10;99.90
21481;DHT22;10902;48.158;8.634;2023-03-01T01:38:57;-3.20;99.90
21481;DHT22;10902;48.158;8.634;2023-03-01T01:41:24;-3.20;99.90
21481;DHT22;10902;48.158;8.634;2023-03-01T01:44:25;-3.10;99.90
21481;DHT22;10902;48.158;8.634;2023-03-01T01:47:03;-3.00;99.90
21481;DHT22;10902;48.158;8.634;2023-03-01T01:49:47;-3.00;99.90
21481;DHT22;10902;48.158;8.634;2023-03-01T01:54:54;-3.00;99.90
21481;DHT22;10902;48.158;8.634;2023-03-01T01:57:32;-3.10;99.90
21481;DHT22;10902;48.158;8.634;2023-03-01T02:00:03;-3.00;99.90
21481;DHT22;10902;48.158;8.634;2023-03-01T02:02:29;-2.90;99.90
21481;DHT22;10902;48.158;8.634;2023-03-01T02:05:03;-2.90;99.90
21481;DHT22;10902;48.158;8.634;2023-03-01T02:07:30;-2.80;99.90
21481;DHT22;10902;48.158;8.634;2023-03-01T02:09:55;-2.80;99.90
21481;DHT22;10902;48.158;8.634;2023-03-01T02:12:24;-2.90;99.90
21481;DHT22;10902;48.158;8.634;2023-03-01T02:14:50;-2.80;99.90
21481;DHT22;10902;48.158;8.634;2023-03-01T02:17:17;-2.80;99.90
21481;DHT22;10902;48.158;8.634;2023-03-01T02:22:30;-2.90;99.90
21481;DHT22;10902;48.158;8.634;2023-03-01T02:27:40;-2.90;99.90
21481;DHT22;10902;48.158;8.634;2023-03-01T02:30:11;-2.90;99.90
21481;DHT22;10902;48.158;8.634;2023-03-01T02:32:41;-2.90;99.90
21481;DHT22;10902;48.158;8.634;2023-03-01T02:35:12;-2.80;99.90
21481;DHT22;10902;48.158;8.634;2023-03-01T02:37:39;-2.70;99.90
21481;DHT22;10902;48.158;8.634;2023-03-01T02:40:12;-2.70;99.90
21481;DHT22;10902;48.158;8.634;2023-03-01T02:42:48;-2.60;99.90
21481;DHT22;10902;48.158;8.634;2023-03-01T02:45:15;-2.60;99.90
21481;DHT22;10902;48.158;8.634;2023-03-01T02:47:40;-2.60;99.90
21481;DHT22;10902;48.158;8.634;2023-03-01T02:50:22;-2.60;99.90
21481;DHT22;10902;48.158;8.634;2023-03-01T02:55:27;-2.50;99.90
21481;DHT22;10902;48.158;8.634;2023-03-01T02:57:53;-2.40;99.90
21481;DHT22;10902;48.158;8.634;2023-03-01T03:00:24;-2.50;99.90
21481;DHT22;10902;48.158;8.634;2023-03-01T03:02:52;-2.50;99.90
21481;DHT22;10902;48.158;8.634;2023-03-01T03:05:30;-2.40;99.90
21481;DHT22;10902;48.158;8.634;2023-03-01T03:07:57;-2.40;99.90
21481;DHT22;10902;48.158;8.634;2023-03-01T03:10:29;-2.40;99.90
21481;DHT22;10902;48.158;8.634;2023-03-01T03:12:58;-2.40;99.90
21481;DHT22;10902;48.158;8.634;2023-03-01T03:15:25;-2.40;99.90
21481;DHT22;10902;48.158;8.634;2023-03-01T03:17:52;-2.50;99.90
21481;DHT22;10902;48.158;8.634;2023-03-01T03:20:20;-2.40;99.90
21481;DHT22;10902;48.158;8.634;2023-03-01T03:22:48;-2.40;99.90
21481;DHT22;10902;48.158;8.634;2023-03-01T03:25:15;-2.30;99.90
21481;DHT22;10902;48.158;8.634;2023-03-01T03:27:42;-2.40;99.90
21481;DHT22;10902;48.158;8.634;2023-03-01T03:30:11;-2.50;99.90
21481;DHT22;10902;48.158;8.634;2023-03-01T03:32:41;-2.50;99.90
21481;DHT22;10902;48.158;8.634;2023-03-01T03:35:09;-2.50;99.90
21481;DHT22;10902;48.158;8.634;2023-03-01T03:37:38;-2.50;99.90
21481;DHT22;10902;48.158;8.634;2023-03-01T03:40:23;-2.40;99.90
21481;DHT22;10902;48.158;8.634;2023-03-01T03:42:49;-2.40;99.90
21481;DHT22;10902;48.158;8.634;2023-03-01T03:45:18;-2.40;99.90
21481;DHT22;10902;48.158;8.634;2023-03-01T03:47:44;-2.40;99.90
21481;DHT22;10902;48.158;8.634;2023-03-01T03:50:12;-2.50;99.90
21481;DHT22;10902;48.158;8.634;2023-03-01T03:52:37;-2.40;99.90
21481;DHT22;10902;48.158;8.634;2023-03-01T03:55:05;-2.40;99.90
21481;DHT22;10902;48.158;8.634;2023-03-01T03:57:38;-2.30;99.90
21481;DHT22;10902;48.158;8.634;2023-03-01T04:00:06;-2.30;99.90
21481;DHT22;10902;48.158;8.634;2023-03-01T04:02:41;-2.20;99.90
21481;DHT22;10902;48.158;8.634;2023-03-01T04:05:08;-2.20;99.90
21481;DHT22;10902;48.158;8.634;2023-03-01T04:07:35;-2.20;99.90
21481;DHT22;10902;48.158;8.634;2023-03-01T04:10:03;-2.20;99.90
21481;DHT22;10902;48.158;8.634;2023-03-01T04:12:29;-2.20;99.90
21481;DHT22;10902;48.158;8.634;2023-03-01T04:14:54;-2.20;99.90
21481;DHT22;10902;48.158;8.634;2023-03-01T04:17:20;-2.20;99.90
21481;DHT22;10902;48.158;8.634;2023-03-01T04:19:45;-2.20;99.90
21481;DHT22;10902;48.158;8.634;2023-03-01T04:22:14;-2.20;99.90
21481;DHT22;10902;48.158;8.634;2023-03-01T04:24:42;-2.20;99.90
21481;DHT22;10902;48.158;8.634;2023-03-01T04:27:08;-2.30;99.90
21481;DHT22;10902;48.158;8.634;2023-03-01T04:29:34;-2.30;99.90
21481;DHT22;10902;48.158;8.634;2023-03-01T04:32:00;-2.20;99.90
21481;DHT22;10902;48.158;8.634;2023-03-01T04:34:25;-2.20;99.90
21481;DHT22;10902;48.158;8.634;2023-03-01T04:36:52;-2.30;99.90
21481;DHT22;10902;48.158;8.634;2023-03-01T04:39:18;-2.20;99.90
21481;DHT22;10902;48.158;8.634;2023-03-01T04:41:43;-2.20;99.90
21481;DHT22;10902;48.158;8.634;2023-03-01T04:44:09;-2.30;99.90
21481;DHT22;10902;48.158;8.634;2023-03-01T04:46:35;-2.20;99.90
21481;DHT22;10902;48.158;8.634;2023-03-01T04:49:02;-2.20;99.90
21481;DHT22;10902;48.158;8.634;2023-03-01T04:51:28;-2.30;99.90
21481;DHT22;10902;48.158;8.634;2023-03-01T04:53:54;-2.20;99.90
21481;DHT22;10902;48.158;8.634;2023-03-01T04:56:20;-2.40;99.90
21481;DHT22;10902;48.158;8.634;2023-03-01T04:58:48;-2.30;99.90
21481;DHT22;10902;48.158;8.634;2023-03-01T05:01:19;-2.20;99.90
21481;DHT22;10902;48.158;8.634;2023-03-01T05:03:47;-2.30;99.90
21481;DHT22;10902;48.158;8.634;2023-03-01T05:06:13;-2.20;99.90
21481;DHT22;10902;48.158;8.634;2023-03-01T05:08:40;-2.30;99.90
21481;DHT22;10902;48.158;8.634;2023-03-01T05:11:06;-2.30;99.90
21481;DHT22;10902;48.158;8.634;2023-03-01T05:13:34;-2.30;99.90
21481;DHT22;10902;48.158;8.634;2023-03-01T05:16:02;-2.30;99.90
21481;DHT22;10902;48.158;8.634;2023-03-01T05:18:29;-2.20;99.90
21481;DHT22;10902;48.158;8.634;2023-03-01T05:21:01;-2.30;99.90
21481;DHT22;10902;48.158;8.634;2023-03-01T05:23:27;-2.30;99.90
21481;DHT22;10902;48.158;8.634;2023-03-01T05:25:52;-2.30;99.90
21481;DHT22;10902;48.158;8.634;2023-03-01T05:28:19;-2.20;99.90
21481;DHT22;10902;48.158;8.634;2023-03-01T05:30:45;-2.20;99.90
21481;DHT22;10902;48.158;8.634;2023-03-01T05:33:11;-2.20;99.90
21481;DHT22;10902;48.158;8.634;2023-03-01T05:35:43;-2.30;99.90
21481;DHT22;10902;48.158;8.634;2023-03-01T05:38:12;-2.30;99.90
21481;DHT22;10902;48.158;8.634;2023-03-01T05:40:45;-2.20;99.90
21481;DHT22;10902;48.158;8.634;2023-03-01T05:43:13;-2.10;99.90
21481;DHT22;10902;48.158;8.634;2023-03-01T05:45:39;-2.10;99.90
21481;DHT22;10902;48.158;8.634;2023-03-01T05:48:06;-2.10;99.90
21481;DHT22;10902;48.158;8.634;2023-03-01T05:50:35;-2.10;99.90
21481;DHT22;10902;48.158;8.634;2023-03-01T05:53:04;-2.10;99.90
21481;DHT22;10902;48.158;8.634;2023-03-01T05:55:31;-2.20;99.90
21481;DHT22;10902;48.158;8.634;2023-03-01T05:58:02;-2.20;99.90
21481;DHT22;10902;48.158;8.634;2023-03-01T06:00:28;-2.30;99.90
21481;DHT22;10902;48.158;8.634;2023-03-01T06:02:55;-2.30;99.90
21481;DHT22;10902;48.158;8.634;2023-03-01T06:05:21;-2.20;99.90
21481;DHT22;10902;48.158;8.634;2023-03-01T06:07:46;-2.20;99.90
21481;DHT22;10902;48.158;8.634;2023-03-01T06:10:12;-2.20;99.90
21481;DHT22;10902;48.158;8.634;2023-03-01T06:12:39;-2.30;99.90
21481;DHT22;10902;48.158;8.634;2023-03-01T06:15:06;-2.30;99.90
21481;DHT22;10902;48.158;8.634;2023-03-01T06:17:34;-2.40;99.90
21481;DHT22;10902;48.158;8.634;2023-03-01T06:20:04;-2.30;99.90
21481;DHT22;10902;48.158;8.634;2023-03-01T06:22:29;-2.30;99.90
21481;DHT22;10902;48.158;8.634;2023-03-01T06:24:55;-2.30;99.90
21481;DHT22;10902;48.158;8.634;2023-03-01T06:27:20;-2.30;99.90
21481;DHT22;10902;48.158;8.634;2023-03-01T06:29:46;-2.30;99.90
21481;DHT22;10902;48.158;8.634;2023-03-01T06:32:12;-2.30;99.90
21481;DHT22;10902;48.158;8.634;2023-03-01T06:34:37;-2.20;99.90
21481;DHT22;10902;48.158;8.634;2023-03-01T06:37:03;-2.20;99.90
21481;DHT22;10902;48.158;8.634;2023-03-01T06:39:31;-2.30;99.90
21481;DHT22;10902;48.158;8.634;2023-03-01T06:41:57;-2.30;99.90
21481;DHT22;10902;48.158;8.634;2023-03-01T06:44:23;-2.30;99.90
21481;DHT22;10902;48.158;8.634;2023-03-01T06:46:48;-2.30;99.90
21481;DHT22;10902;48.158;8.634;2023-03-01T06:49:14;-2.20;99.90
21481;DHT22;10902;48.158;8.634;2023-03-01T06:51:41;-2.20;99.90
21481;DHT22;10902;48.158;8.634;2023-03-01T06:54:07;-2.30;99.90
21481;DHT22;10902;48.158;8.634;2023-03-01T06:56:33;-2.20;99.90
21481;DHT22;10902;48.158;8.634;2023-03-01T06:58:59;-2.20;99.90
21481;DHT22;10902;48.158;8.634;2023-03-01T07:01:25;-2.20;99.90
21481;DHT22;10902;48.158;8.634;2023-03-01T07:03:50;-2.20;99.90
21481;DHT22;10902;48.158;8.634;2023-03-01T07:06:16;-2.10;99.90
21481;DHT22;10902;48.158;8.634;2023-03-01T07:08:43;-2.20;99.90
21481;DHT22;10902;48.158;8.634;2023-03-01T07:11:08;-2.20;99.90
21481;DHT22;10902;48.158;8.634;2023-03-01T07:13:34;-2.20;99.90
21481;DHT22;10902;48.158;8.634;2023-03-01T07:16:00;-2.10;99.90
21481;DHT22;10902;48.158;8.634;2023-03-01T07:18:26;-2.00;99.90
21481;DHT22;10902;48.158;8.634;2023-03-01T07:20:51;-1.90;99.90
21481;DHT22;10902;48.158;8.634;2023-03-01T07:23:17;-2.00;99.90
21481;DHT22;10902;48.158;8.634;2023-03-01T07:25:42;-2.00;99.90
21481;DHT22;10902;48.158;8.634;2023-03-01T07:28:08;-2.00;99.90
21481;DHT22;10902;48.158;8.634;2023-03-01T07:30:34;-1.90;99.90
21481;DHT22;10902;48.158;8.634;2023-03-01T07:32:59;-1.90;99.90
21481;DHT22;10902;48.158;8.634;2023-03-01T07:35:26;-1.90;99.90
21481;DHT22;10902;48.158;8.634;2023-03-01T07:37:52;-1.80;99.90
21481;DHT22;10902;48.158;8.634;2023-03-01T07:40:19;-1.70;99.90
21481;DHT22;10902;48.158;8.634;2023-03-01T07:42:44;-1.70;99.90
21481;DHT22;10902;48.158;8.634;2023-03-01T07:45:10;-1.50;99.90
21481;DHT22;10902;48.158;8.634;2023-03-01T07:47:36;-1.50;99.90
21481;DHT22;10902;48.158;8.634;2023-03-01T07:50:03;-1.50;99.90
21481;DHT22;10902;48.158;8.634;2023-03-01T07:52:29;-1.50;99.90
21481;DHT22;10902;48.158;8.634;2023-03-01T07:54:56;-1.50;99.90
21481;DHT22;10902;48.158;8.634;2023-03-01T07:57:21;-1.50;99.90
21481;DHT22;10902;48.158;8.634;2023-03-01T07:59:47;-1.50;99.90
21481;DHT22;10902;48.158;8.634;2023-03-01T08:02:12;-1.50;99.90
21481;DHT22;10902;48.158;8.634;2023-03-01T08:04:38;-1.40;99.90
21481;DHT22;10902;48.158;8.634;2023-03-01T08:07:05;-1.30;99.90
21481;DHT22;10902;48.158;8.634;2023-03-01T08:09:31;-1.10;99.90
21481;DHT22;10902;48.158;8.634;2023-03-01T08:11:57;-1.10;99.90
21481;DHT22;10902;48.158;8.634;2023-03-01T08:14:26;-1.00;99.90
21481;DHT22;10902;48.158;8.634;2023-03-01T08:16:51;-1.10;99.90
21481;DHT22;10902;48.158;8.634;2023-03-01T08:19:17;-1.00;99.90
21481;DHT22;10902;48.158;8.634;2023-03-01T08:21:43;-1.00;99.90
21481;DHT22;10902;48.158;8.634;2023-03-01T08:24:08;-1.00;99.90
21481;DHT22;10902;48.158;8.634;2023-03-01T08:26:36;-0.90;99.90
21481;DHT22;10902;48.158;8.634;2023-03-01T08:29:02;-0.80;99.90
21481;DHT22;10902;48.158;8.634;2023-03-01T08:31:40;-0.80;99.90
21481;DHT22;10902;48.158;8.634;2023-03-01T08:34:08;-0.80;99.90
21481;DHT22;10902;48.158;8.634;2023-03-01T08:36:39;-0.70;99.90
21481;DHT22;10902;48.158;8.634;2023-03-01T08:39:06;-1.00;99.90
21481;DHT22;10902;48.158;8.634;2023-03-01T08:41:31;-0.80;99.90
21481;DHT22;10902;48.158;8.634;2023-03-01T08:43:57;-0.60;99.90
21481;DHT22;10902;48.158;8.634;2023-03-01T08:46:37;-0.70;99.90
21481;DHT22;10902;48.158;8.634;2023-03-01T08:49:11;-0.60;99.90
21481;DHT22;10902;48.158;8.634;2023-03-01T08:51:37;-0.60;99.90
21481;DHT22;10902;48.158;8.634;2023-03-01T08:54:04;-0.60;99.90
21481;DHT22;10902;48.158;8.634;2023-03-01T08:56:31;-0.50;99.90
21481;DHT22;10902;48.158;8.634;2023-03-01T08:58:56;-0.40;99.90
21481;DHT22;10902;48.158;8.634;2023-03-01T09:01:22;-0.50;99.90
21481;DHT22;10902;48.158;8.634;2023-03-01T09:03:48;-0.30;99.90
21481;DHT22;10902;48.158;8.634;2023-03-01T09:06:14;-0.10;99.90
21481;DHT22;10902;48.158;8.634;2023-03-01T09:08:43;-0.10;99.90
21481;DHT22;10902;48.158;8.634;2023-03-01T09:11:11;0.10;99.90
21481;DHT22;10902;48.158;8.634;2023-03-01T09:13:37;-0.10;99.90
21481;DHT22;10902;48.158;8.634;2023-03-01T09:16:04;-0.10;99.90
21481;DHT22;10902;48.158;8.634;2023-03-01T09:18:31;0.00;99.90
21481;DHT22;10902;48.158;8.634;2023-03-01T09:21:03;0.30;99.90
21481;DHT22;10902;48.158;8.634;2023-03-01T09:23:37;0.50;99.90
21481;DHT22;10902;48.158;8.634;2023-03-01T09:26:04;0.60;99.90
21481;DHT22;10902;48.158;8.634;2023-03-01T09:28:30;0.70;99.90
21481;DHT22;10902;48.158;8.634;2023-03-01T09:31:00;0.60;99.90
21481;DHT22;10902;48.158;8.634;2023-03-01T09:33:27;0.70;99.90
21481;DHT22;10902;48.158;8.634;2023-03-01T09:35:59;0.90;99.90
21481;DHT22;10902;48.158;8.634;2023-03-01T09:38:25;0.80;99.90
21481;DHT22;10902;48.158;8.634;2023-03-01T09:40:51;0.70;99.90
21481;DHT22;10902;48.158;8.634;2023-03-01T09:46:05;1.00;99.90
21481;DHT22;10902;48.158;8.634;2023-03-01T09:48:38;1.20;99.90
21481;DHT22;10902;48.158;8.634;2023-03-01T09:51:12;1.30;99.90
21481;DHT22;10902;48.158;8.634;2023-03-01T09:53:39;1.20;99.90
21481;DHT22;10902;48.158;8.634;2023-03-01T09:56:13;1.50;99.90
21481;DHT22;10902;48.158;8.634;2023-03-01T10:02:04;1.60;99.90
21481;DHT22;10902;48.158;8.634;2023-03-01T10:04:50;1.90;99.90
21481;DHT22;10902;48.158;8.634;2023-03-01T10:08:40;2.00;99.90
21481;DHT22;10902;48.158;8.634;2023-03-01T10:10:43;2.10;99.90
21481;DHT22;10902;48.158;8.634;2023-03-01T10:13:29;2.30;99.90
21481;DHT22;10902;48.158;8.634;2023-03-01T10:16:05;2.40;99.90
21481;DHT22;10902;48.158;8.634;2023-03-01T10:18:34;2.40;99.90
21481;DHT22;10902;48.158;8.634;2023-03-01T10:21:22;2.40;99.90
21481;DHT22;10902;48.158;8.634;2023-03-01T10:23:50;2.30;99.90
21481;DHT22;10902;48.158;8.634;2023-03-01T10:29:09;2.60;99.90
21481;DHT22;10902;48.158;8.634;2023-03-01T10:34:22;2.70;99.90
21481;DHT22;10902;48.158;8.634;2023-03-01T10:36:53;2.80;99.90
21481;DHT22;10902;48.158;8.634;2023-03-01T10:39:23;2.80;99.90
21481;DHT22;10902;48.158;8.634;2023-03-01T10:42:29;2.80;99.90
21481;DHT22;10902;48.158;8.634;2023-03-01T10:44:56;2.80;99.90
21481;DHT22;10902;48.158;8.634;2023-03-01T10:47:24;3.20;99.90
21481;DHT22;10902;48.158;8.634;2023-03-01T10:49:56;3.70;99.90
21481;DHT22;10902;48.158;8.634;2023-03-01T10:52:28;3.70;99.90
21481;DHT22;10902;48.158;8.634;2023-03-01T10:55:01;3.70;99.90
21481;DHT22;10902;48.158;8.634;2023-03-01T10:57:38;3.90;99.90
21481;DHT22;10902;48.158;8.634;2023-03-01T11:00:18;4.00;99.90
21481;DHT22;10902;48.158;8.634;2023-03-01T11:03:10;3.90;99.90
21481;DHT22;10902;48.158;8.634;2023-03-01T11:05:34;3.60;99.90
21481;DHT22;10902;48.158;8.634;2023-03-01T11:08:02;3.10;99.90
21481;DHT22;10902;48.158;8.634;2023-03-01T11:10:31;3.20;99.90
21481;DHT22;10902;48.158;8.634;2023-03-01T11:13:08;3.30;99.90
21481;DHT22;10902;48.158;8.634;2023-03-01T11:15:39;3.40;99.90
21481;DHT22;10902;48.158;8.634;2023-03-01T11:18:05;3.30;99.90
21481;DHT22;10902;48.158;8.634;2023-03-01T11:20:43;3.70;99.90
21481;DHT22;10902;48.158;8.634;2023-03-01T11:23:13;3.60;99.90
21481;DHT22;10902;48.158;8.634;2023-03-01T11:26:03;3.70;99.90
21481;DHT22;10902;48.158;8.634;2023-03-01T11:28:31;4.00;99.90
21481;DHT22;10902;48.158;8.634;2023-03-01T11:31:03;5.20;99.90
21481;DHT22;10902;48.158;8.634;2023-03-01T11:36:11;7.60;99.90
21481;DHT22;10902;48.158;8.634;2023-03-01T11:38:41;8.20;99.90
21481;DHT22;10902;48.158;8.634;2023-03-01T11:41:10;7.60;99.90
21481;DHT22;10902;48.158;8.634;2023-03-01T12:05:58;10.00;99.90
21481;DHT22;10902;48.158;8.634;2023-03-01T12:09:31;9.80;99.90
21481;DHT22;10902;48.158;8.634;2023-03-01T12:17:27;8.60;99.90
21481;DHT22;10902;48.158;8.634;2023-03-01T12:47:54;8.50;99.90
21481;DHT22;10902;48.158;8.634;2023-03-01T12:50:24;9.10;99.90
21481;DHT22;10902;48.158;8.634;2023-03-01T12:52:56;9.20;99.90
21481;DHT22;10902;48.158;8.634;2023-03-01T12:55:41;9.20;99.90
21481;DHT22;10902;48.158;8.634;2023-03-01T13:04:16;10.00;99.90
21481;DHT22;10902;48.158;8.634;2023-03-01T13:31:07;10.90;99.90
21481;DHT22;10902;48.158;8.634;2023-03-01T13:33:43;11.30;99.90
21481;DHT22;10902;48.158;8.634;2023-03-01T13:36:10;11.60;99.90
21481;DHT22;10902;48.158;8.634;2023-03-01T13:49:27;10.40;99.90
21481;DHT22;10902;48.158;8.634;2023-03-01T13:51:54;10.30;99.90
21481;DHT22;10902;48.158;8.634;2023-03-01T13:54:28;10.90;99.90
21481;DHT22;10902;48.158;8.634;2023-03-01T13:56:55;11.70;99.90
21481;DHT22;10902;48.158;8.634;2023-03-01T13:59:22;10.70;99.90
21481;DHT22;10902;48.158;8.634;2023-03-01T14:01:56;11.40;99.90
21481;DHT22;10902;48.158;8.634;2023-03-01T14:04:27;12.30;99.90
21481;DHT22;10902;48.158;8.634;2023-03-01T14:09:38;11.90;99.90
21481;DHT22;10902;48.158;8.634;2023-03-01T14:12:38;11.60;99.90
21481;DHT22;10902;48.158;8.634;2023-03-01T14:17:52;11.90;99.90
21481;DHT22;10902;48.158;8.634;2023-03-01T14:20:22;11.60;99.90
21481;DHT22;10902;48.158;8.634;2023-03-01T14:22:51;12.00;99.90
21481;DHT22;10902;48.158;8.634;2023-03-01T14:25:35;11.40;99.90
21481;DHT22;10902;48.158;8.634;2023-03-01T14:28:03;11.70;99.90
21481;DHT22;10902;48.158;8.634;2023-03-01T14:30:36;11.70;99.90
21481;DHT22;10902;48.158;8.634;2023-03-01T14:33:05;11.90;99.90
21481;DHT22;10902;48.158;8.634;2023-03-01T14:35:34;11.60;99.90
21481;DHT22;10902;48.158;8.634;2023-03-01T14:38:00;12.10;99.90
21481;DHT22;10902;48.158;8.634;2023-03-01T14:40:35;12.70;99.90
21481;DHT22;10902;48.158;8.634;2023-03-01T14:43:08;11.90;99.90
21481;DHT22;10902;48.158;8.634;2023-03-01T14:45:34;11.60;99.90
21481;DHT22;10902;48.158;8.634;2023-03-01T14:48:02;11.20;99.90
21481;DHT22;10902;48.158;8.634;2023-03-01T14:50:31;11.50;99.90
21481;DHT22;10902;48.158;8.634;2023-03-01T14:53:00;11.90;99.90
21481;DHT22;10902;48.158;8.634;2023-03-01T14:57:52;12.00;99.90
21481;DHT22;10902;48.158;8.634;2023-03-01T15:00:28;11.50;99.90
21481;DHT22;10902;48.158;8.634;2023-03-01T15:02:56;11.50;99.90
21481;DHT22;10902;48.158;8.634;2023-03-01T15:05:27;12.00;99.90
21481;DHT22;10902;48.158;8.634;2023-03-01T15:07:55;11.40;99.90
21481;DHT22;10902;48.158;8.634;2023-03-01T15:10:24;11.80;99.90
21481;DHT22;10902;48.158;8.634;2023-03-01T15:12:50;11.80;99.90
21481;DHT22;10902;48.158;8.634;2023-03-01T15:15:34;11.90;99.90
21481;DHT22;10902;48.158;8.634;2023-03-01T15:18:44;12.10;99.90
21481;DHT22;10902;48.158;8.634;2023-03-01T15:20:50;11.50;99.90
21481;DHT22;10902;48.158;8.634;2023-03-01T15:23:20;10.20;99.90
21481;DHT22;10902;48.158;8.634;2023-03-01T15:25:47;10.20;99.90
21481;DHT22;10902;48.158;8.634;2023-03-01T15:28:37;10.50;99.90
21481;DHT22;10902;48.158;8.634;2023-03-01T15:31:20;10.10;99.90
21481;DHT22;10902;48.158;8.634;2023-03-01T15:33:46;10.00;99.90
21481;DHT22;10902;48.158;8.634;2023-03-01T15:38:58;10.60;99.90
21481;DHT22;10902;48.158;8.634;2023-03-01T15:43:56;11.00;99.90
21481;DHT22;10902;48.158;8.634;2023-03-01T15:46:31;9.90;99.90
21481;DHT22;10902;48.158;8.634;2023-03-01T15:49:00;10.30;99.90
21481;DHT22;10902;48.158;8.634;2023-03-01T15:51:35;10.30;99.90
21481;DHT22;10902;48.158;8.634;2023-03-01T15:54:20;10.10;99.90
21481;DHT22;10902;48.158;8.634;2023-03-01T15:56:47;9.50;99.90
21481;DHT22;10902;48.158;8.634;2023-03-01T15:59:12;9.30;99.90
21481;DHT22;10902;48.158;8.634;2023-03-01T16:01:43;8.80;99.90
21481;DHT22;10902;48.158;8.634;2023-03-01T16:04:11;8.40;99.90
21481;DHT22;10902;48.158;8.634;2023-03-01T16:06:41;8.10;99.90
21481;DHT22;10902;48.158;8.634;2023-03-01T16:09:07;8.20;99.90
21481;DHT22;10902;48.158;8.634;2023-03-01T16:11:33;8.20;99.90
21481;DHT22;10902;48.158;8.634;2023-03-01T16:14:02;8.00;99.90
21481;DHT22;10902;48.158;8.634;2023-03-01T16:16:27;7.80;99.90
21481;DHT22;10902;48.158;8.634;2023-03-01T16:18:53;7.90;99.90
21481;DHT22;10902;48.158;8.634;2023-03-01T16:21:24;8.40;99.90
21481;DHT22;10902;48.158;8.634;2023-03-01T16:23:51;8.00;99.90
21481;DHT22;10902;48.158;8.634;2023-03-01T16:26:17;7.60;99.90
21481;DHT22;10902;48.158;8.634;2023-03-01T16:28:44;7.20;99.90
21481;DHT22;10902;48.158;8.634;2023-03-01T16:31:10;7.00;99.90
21481;DHT22;10902;48.158;8.634;2023-03-01T16:33:36;7.00;99.90
21481;DHT22;10902;48.158;8.634;2023-03-01T16:36:11;6.70;99.90
21481;DHT22;10902;48.158;8.634;2023-03-01T16:38:37;6.30;99.90
21481;DHT22;10902;48.158;8.634;2023-03-01T16:41:04;5.90;99.90
21481;DHT22;10902;48.158;8.634;2023-03-01T16:43:31;5.40;99.90
21481;DHT22;10902;48.158;8.634;2023-03-01T16:45:57;5.20;99.90
21481;DHT22;10902;48.158;8.634;2023-03-01T16:48:24;4.80;99.90
21481;DHT22;10902;48.158;8.634;2023-03-01T16:50:58;4.60;99.90
21481;DHT22;10902;48.158;8.634;2023-03-01T16:53:23;4.50;99.90
21481;DHT22;10902;48.158;8.634;2023-03-01T16:55:56;4.30;99.90
21481;DHT22;10902;48.158;8.634;2023-03-01T16:58:22;4.20;99.90
21481;DHT22;10902;48.158;8.634;2023-03-01T17:00:53;4.00;99.90
21481;DHT22;10902;48.158;8.634;2023-03-01T17:03:23;3.90;99.90
21481;DHT22;10902;48.158;8.634;2023-03-01T17:05:49;3.90;99.90
21481;DHT22;10902;48.158;8.634;2023-03-01T17:08:15;3.70;99.90
21481;DHT22;10902;48.158;8.634;2023-03-01T17:10:42;3.60;99.90
21481;DHT22;10902;48.158;8.634;2023-03-01T17:13:08;3.60;99.90
21481;DHT22;10902;48.158;8.634;2023-03-01T17:15:35;3.50;99.90
21481;DHT22;10902;48.158;8.634;2023-03-01T17:18:02;3.50;99.90
21481;DHT22;10902;48.158;8.634;2023-03-01T17:20:28;3.40;99.90
21481;DHT22;10902;48.158;8.634;2023-03-01T17:22:54;3.40;99.90
21481;DHT22;10902;48.158;8.634;2023-03-01T17:25:19;3.30;99.90
21481;DHT22;10902;48.158;8.634;2023-03-01T17:27:45;3.20;99.90
21481;DHT22;10902;48.158;8.634;2023-03-01T17:30:12;3.10;99.90
21481;DHT22;10902;48.158;8.634;2023-03-01T17:32:38;3.00;99.90
21481;DHT22;10902;48.158;8.634;2023-03-01T17:35:04;2.90;99.90
21481;DHT22;10902;48.158;8.634;2023-03-01T17:37:30;2.80;99.90
21481;DHT22;10902;48.158;8.634;2023-03-01T17:39:56;2.80;99.90
21481;DHT22;10902;48.158;8.634;2023-03-01T17:42:22;2.70;99.90
21481;DHT22;10902;48.158;8.634;2023-03-01T17:44:47;2.70;99.90
21481;DHT22;10902;48.158;8.634;2023-03-01T17:47:13;2.60;99.90
21481;DHT22;10902;48.158;8.634;2023-03-01T17:49:39;2.60;99.90
21481;DHT22;10902;48.158;8.634;2023-03-01T17:52:04;2.60;99.90
21481;DHT22;10902;48.158;8.634;2023-03-01T17:54:30;2.50;99.90
21481;DHT22;10902;48.158;8.634;2023-03-01T17:56:58;2.40;99.90
21481;DHT22;10902;48.158;8.634;2023-03-01T17:59:24;2.50;99.90
21481;DHT22;10902;48.158;8.634;2023-03-01T18:01:56;2.50;99.90